This demonstration page uses our WeatherBlox Daily Observations layout. Learn more.

38.80484, -77.04692

Hourly Observations for April 17, 2019

Temp ( °F °C ) Dew Point ( °F °C ) Humidity (%) Winds ( mph kmh ) Pressure ( in mb ) Visibility ( mi km ) Precip ( " mm )
12:52 am 00:52 Clear 60 15.6 39 3.9 46 46 SSW 7 11 30.01 1016 10 16.0934 0 0
1:52 am 01:52 Mostly Clear 59 15 41 5 51 51 S 7 11 30 1016 10 16.0934 0 0
2:52 am 02:52 Partly Cloudy 58 14.4 45 7.2 62 62 S 8 13 29.99 1016 10 16.0934 0 0
3:52 am 03:52 Partly Cloudy 58 14.4 43 6.1 58 58 SSW 6 9 30 1016 10 16.0934 0 0
4:52 am 04:52 Cloudy 58 14.4 44 6.7 60 60 SW 3 6 30.01 1016 10 16.0934 0 0
5:52 am 05:52 Cloudy 59 15 42 5.6 54 54 Calm 30.01 1016 10 16.0934 0 0
6:52 am 06:52 Mostly Cloudy 58 14.4 41 5 53 53 NNE 7 11 30.06 1018 10 16.0934 0 0
7:52 am 07:52 Partly Cloudy 58 14.4 45 7.2 62 62 NNE 9 15 30.08 1019 10 16.0934 0 0
8:52 am 08:52 Mostly Cloudy 60 15.6 46 7.8 60 60 NE 9 15 30.09 1019 10 16.0934 0 0
9:52 am 09:52 Mostly Cloudy 63 17.2 45 7.2 52 52 NNE 8 13 30.1 1019 10 16.0934 0 0
10:52 am 10:52 Mostly Cloudy 65 18.3 45 7.2 49 49 NE 9 15 30.1 1019 10 16.0934 0 0
11:52 am 11:52 Cloudy 67 19.4 45 7.2 45 45 NNE 10 17 30.1 1019 10 16.0934 0 0
12:52 pm 12:52 Cloudy 69 20.6 46 7.8 44 44 ESE 8 13 30.09 1019 10 16.0934 0 0
1:52 pm 13:52 Cloudy 70 21.1 49 9.4 47 47 ENE 10 17 30.09 1019 10 16.0934 0 0
2:52 pm 14:52 Cloudy 70 21.1 48 8.9 46 46 ESE 12 19 30.09 1019 10 16.0934 0 0
3:52 pm 15:52 Mostly Cloudy 70 21.1 49 9.4 47 47 ENE 9 15 30.07 1018 10 16.0934 0 0
4:52 pm 16:52 Mostly Cloudy 69 20.6 47 8.3 45 45 ESE 12 19 30.05 1018 10 16.0934 0 0
5:52 pm 17:52 Mostly Cloudy 67 19.4 46 7.8 47 47 ESE 14 22 30.05 1018 10 16.0934 0 0
6:52 pm 18:52 Mostly Cloudy 64 17.8 46 7.8 52 52 E 13 20 30.06 1018 10 16.0934 0 0
7:52 pm 19:52 Mostly Cloudy 62 16.7 45 7.2 54 54 E 9 15 30.07 1018 10 16.0934 0 0
8:52 pm 20:52 Partly Cloudy 59 15 44 6.7 58 58 E 10 17 30.09 1019 10 16.0934 0 0
9:52 pm 21:52 Partly Cloudy 58 14.4 43 6.1 58 58 E 12 19 30.11 1020 10 16.0934 0 0
10:52 pm 22:52 Mostly Cloudy 57 13.9 46 7.8 67 67 E 8 13 30.1 1019 10 16.0934 0 0
11:52 pm 23:52 Cloudy 56 13.3 48 8.9 75 75 E 9 15 30.1 1019 10 16.0934 0 0

Powered by AerisWeather